createdAt,value
2017-10-21T00:00:20.401Z,100523.41
2017-10-21T00:01:26.319Z,100519.17
2017-10-21T00:02:32.211Z,100527.39
2017-10-21T00:03:38.327Z,100522.42
2017-10-21T00:04:44.200Z,100526.19
2017-10-21T00:05:50.293Z,100527.92
2017-10-21T00:06:56.389Z,100524.89
2017-10-21T00:08:02.519Z,100523.66
2017-10-21T00:09:08.711Z,100522.55
2017-10-21T00:10:14.948Z,100522.27
2017-10-21T00:11:22.650Z,100528.39
2017-10-21T00:12:28.801Z,100521.36
2017-10-21T00:13:34.907Z,100529.55
2017-10-21T00:14:41.019Z,100531.12
2017-10-21T00:15:47.135Z,100527.20
2017-10-21T00:16:53.253Z,100523.63
2017-10-21T00:17:59.371Z,100521.81
2017-10-21T00:19:05.490Z,100525.77
2017-10-21T00:20:12.278Z,100528.34
2017-10-21T00:21:18.845Z,100522.77
2017-10-21T00:22:25.053Z,100524.45
2017-10-21T00:23:31.201Z,100526.06
2017-10-21T00:24:37.300Z,100523.70
2017-10-21T00:25:43.454Z,100525.52
2017-10-21T00:26:49.620Z,100525.25
2017-10-21T00:27:55.701Z,100523.23
2017-10-21T00:29:01.806Z,100529.15
2017-10-21T00:30:07.962Z,100526.45
2017-10-21T00:31:14.084Z,100525.93
2017-10-21T00:32:20.158Z,100520.89
2017-10-21T00:33:26.235Z,100522.56
2017-10-21T00:34:31.971Z,100521.36
2017-10-21T00:35:38.089Z,100522.98
2017-10-21T00:36:44.976Z,100517.73
2017-10-21T00:37:51.087Z,100521.11
2017-10-21T00:38:57.157Z,100518.19
2017-10-21T00:40:03.290Z,100521.13
2017-10-21T00:41:11.586Z,100518.74
2017-10-21T00:42:17.724Z,100517.86
2017-10-21T00:43:23.817Z,100519.60
2017-10-21T00:44:30.875Z,100524.47
2017-10-21T00:45:37.018Z,100517.86
2017-10-21T00:46:44.003Z,100519.63
2017-10-21T00:47:50.745Z,100519.50
2017-10-21T00:48:56.806Z,100519.20
2017-10-21T00:50:02.871Z,100519.39
2017-10-21T00:51:08.981Z,100519.88
2017-10-21T00:52:16.000Z,100519.33
2017-10-21T00:53:22.139Z,100519.11
2017-10-21T00:54:28.255Z,100517.28
2017-10-21T00:55:33.703Z,100518.06
2017-10-21T00:56:39.151Z,100527.91
2017-10-21T00:57:44.332Z,100524.33
2017-10-21T00:58:49.679Z,100527.51
2017-10-21T00:59:55.050Z,100528.39
2017-10-21T01:01:00.440Z,100530.41
2017-10-21T01:02:06.387Z,100526.99
2017-10-21T01:03:12.542Z,100527.39
2017-10-21T01:04:18.483Z,100522.20
2017-10-21T01:05:24.592Z,100521.77
2017-10-21T01:06:30.741Z,100527.16
2017-10-21T01:07:36.934Z,100522.28
2017-10-21T01:08:42.925Z,100518.90
2017-10-21T01:09:48.831Z,100520.99
2017-10-21T01:10:54.947Z,100518.34
2017-10-21T01:12:01.051Z,100522.54
2017-10-21T01:13:07.165Z,100520.82
2017-10-21T01:14:13.312Z,100519.02
2017-10-21T01:15:18.655Z,100521.41
2017-10-21T01:16:24.234Z,100522.02
2017-10-21T01:17:30.345Z,100520.44
2017-10-21T01:18:36.053Z,100517.53
2017-10-21T01:19:41.423Z,100520.82
2017-10-21T01:20:46.858Z,100521.03
2017-10-21T01:21:52.596Z,100515.71
2017-10-21T01:22:58.044Z,100517.00
2017-10-21T01:24:03.407Z,100510.77
2017-10-21T01:25:08.756Z,100510.31
2017-10-21T01:26:14.121Z,100509.20
2017-10-21T01:27:19.489Z,100514.70
2017-10-21T01:28:24.874Z,100514.02
2017-10-21T01:29:33.351Z,100516.89
2017-10-21T01:30:38.728Z,100519.09
2017-10-21T01:31:44.509Z,100518.77
2017-10-21T01:32:49.870Z,100514.61
2017-10-21T01:33:55.278Z,100514.86
2017-10-21T01:35:00.985Z,100517.70
2017-10-21T01:36:06.215Z,100524.25
2017-10-21T01:37:11.625Z,100517.62
2017-10-21T01:38:17.363Z,100515.89
2017-10-21T01:39:22.713Z,100514.03
2017-10-21T01:40:28.163Z,100513.12
2017-10-21T01:41:34.516Z,100509.78
2017-10-21T01:42:39.891Z,100508.61
2017-10-21T01:43:45.253Z,100509.47
2017-10-21T01:44:50.720Z,100508.73
2017-10-21T01:45:56.117Z,100509.95
2017-10-21T01:47:02.274Z,100508.02
2017-10-21T01:48:07.628Z,100506.44
2017-10-21T01:49:13.037Z,100511.09
2017-10-21T01:50:18.468Z,100507.20
2017-10-21T01:51:24.968Z,100504.34
2017-10-21T01:52:30.388Z,100509.35
2017-10-21T01:53:35.769Z,100510.36
2017-10-21T01:54:44.902Z,100501.41
2017-10-21T01:55:50.321Z,100508.20
2017-10-21T01:56:55.780Z,100505.59
2017-10-21T01:58:04.469Z,100504.20
2017-10-21T01:59:09.874Z,100505.06
2017-10-21T02:00:15.946Z,100505.70
2017-10-21T02:01:21.123Z,100505.55
2017-10-21T02:02:26.925Z,100504.71
2017-10-21T02:03:33.016Z,100506.00
2017-10-21T02:04:41.382Z,100494.76
2017-10-21T02:05:46.788Z,100500.47
2017-10-21T02:06:52.195Z,100503.28
2017-10-21T02:07:57.698Z,100506.77
2017-10-21T02:09:03.054Z,100503.92
2017-10-21T02:10:08.229Z,100507.05
2017-10-21T02:11:13.912Z,100506.20
2017-10-21T02:12:19.332Z,100499.59
2017-10-21T02:13:24.882Z,100501.63
2017-10-21T02:14:30.277Z,100504.70
2017-10-21T02:15:35.639Z,100502.23
2017-10-21T02:16:43.761Z,100504.42
2017-10-21T02:17:49.483Z,100501.34
2017-10-21T02:18:54.825Z,100509.83
2017-10-21T02:20:00.234Z,100505.68
2017-10-21T02:21:06.285Z,100510.22
2017-10-21T02:22:11.475Z,100506.88
2017-10-21T02:23:16.830Z,100506.47
2017-10-21T02:24:22.248Z,100509.64
2017-10-21T02:25:27.806Z,100501.59
2017-10-21T02:26:33.190Z,100506.43
2017-10-21T02:27:38.564Z,100504.28
2017-10-21T02:28:43.980Z,100507.09
2017-10-21T02:29:49.712Z,100501.29
2017-10-21T02:30:55.071Z,100505.14
2017-10-21T02:32:00.213Z,100506.98
2017-10-21T02:33:05.567Z,100507.97
2017-10-21T02:34:11.014Z,100505.05
2017-10-21T02:35:16.402Z,100511.52
2017-10-21T02:36:21.807Z,100508.12
2017-10-21T02:37:27.463Z,100508.45
2017-10-21T02:38:33.701Z,100501.80
2017-10-21T02:39:39.079Z,100506.48
2017-10-21T02:40:44.261Z,100505.27
2017-10-21T02:41:49.988Z,100505.52
2017-10-21T02:42:55.375Z,100505.66
2017-10-21T02:44:00.792Z,100503.17
2017-10-21T02:45:06.163Z,100505.52
2017-10-21T02:46:12.301Z,100503.20
2017-10-21T02:47:18.416Z,100504.00
2017-10-21T02:48:24.587Z,100508.45
2017-10-21T02:49:30.641Z,100502.31
2017-10-21T02:50:36.772Z,100504.87
2017-10-21T02:51:42.932Z,100506.89
2017-10-21T02:52:48.990Z,100504.59
2017-10-21T02:53:55.066Z,100507.00
2017-10-21T02:55:01.127Z,100504.72
2017-10-21T02:56:07.211Z,100502.95
2017-10-21T02:57:13.291Z,100498.13
2017-10-21T02:58:19.341Z,100501.16
2017-10-21T02:59:25.300Z,100500.33
2017-10-21T03:00:31.069Z,100497.41
2017-10-21T03:01:36.973Z,100496.05
2017-10-21T03:02:43.057Z,100491.84
2017-10-21T03:03:49.866Z,100497.44
2017-10-21T03:04:55.535Z,100494.38
2017-10-21T03:06:01.419Z,100496.77
2017-10-21T03:07:07.672Z,100492.56
2017-10-21T03:08:13.528Z,100496.98
2017-10-21T03:09:19.613Z,100488.36
2017-10-21T03:10:25.730Z,100494.60
2017-10-21T03:11:31.774Z,100495.94
2017-10-21T03:12:37.595Z,100490.45
2017-10-21T03:13:43.683Z,100488.23
2017-10-21T03:14:50.525Z,100496.80
2017-10-21T03:15:56.668Z,100494.22
2017-10-21T03:17:02.765Z,100492.48
2017-10-21T03:18:08.814Z,100490.73
2017-10-21T03:19:14.888Z,100496.98
2017-10-21T03:20:23.522Z,100497.14
2017-10-21T03:21:29.274Z,100499.34
2017-10-21T03:22:35.001Z,100492.27
2017-10-21T03:23:40.930Z,100497.41
2017-10-21T03:24:47.017Z,100495.23
2017-10-21T03:25:52.912Z,100496.61
2017-10-21T03:26:58.993Z,100497.49
2017-10-21T03:28:05.143Z,100496.77
2017-10-21T03:29:11.033Z,100496.34
2017-10-21T03:30:16.736Z,100505.02
2017-10-21T03:31:22.649Z,100498.02
2017-10-21T03:32:28.847Z,100491.86
2017-10-21T03:33:34.920Z,100493.16
2017-10-21T03:34:41.022Z,100493.98
2017-10-21T03:35:46.248Z,100490.80
2017-10-21T03:36:51.611Z,100496.18
2017-10-21T03:37:56.839Z,100489.67
2017-10-21T03:39:01.988Z,100491.52
2017-10-21T03:40:07.967Z,100495.05
2017-10-21T03:41:13.744Z,100497.14
2017-10-21T03:42:19.831Z,100491.89
2017-10-21T03:43:25.940Z,100490.94
2017-10-21T03:44:32.007Z,100485.17
2017-10-21T03:45:37.750Z,100493.47
2017-10-21T03:46:43.868Z,100490.53
2017-10-21T03:47:49.988Z,100495.75
2017-10-21T03:48:56.097Z,100493.05
2017-10-21T03:50:04.293Z,100494.36
2017-10-21T03:51:10.375Z,100498.70
2017-10-21T03:53:38.144Z,100493.61
2017-10-21T03:54:44.250Z,100497.20
2017-10-21T03:55:50.335Z,100494.67
2017-10-21T03:56:56.225Z,100499.14
2017-10-21T03:58:02.388Z,100506.00
2017-10-21T03:59:08.502Z,100504.98
2017-10-21T04:00:23.343Z,100502.36
2017-10-21T04:01:32.640Z,100501.94
2017-10-21T04:02:43.474Z,100502.50
2017-10-21T04:03:49.622Z,100507.64
2017-10-21T04:05:13.484Z,100502.90
2017-10-21T04:06:22.245Z,100496.36
2017-10-21T04:07:28.355Z,100498.02
2017-10-21T04:08:34.257Z,100497.41
2017-10-21T04:09:39.628Z,100498.41
2017-10-21T04:10:45.042Z,100489.61
2017-10-21T04:12:04.537Z,100489.19
2017-10-21T04:13:32.458Z,100495.20
2017-10-21T04:14:43.167Z,100494.00
2017-10-21T04:15:55.689Z,100497.11
2017-10-21T04:17:01.568Z,100494.86
2017-10-21T04:18:07.460Z,100490.70
2017-10-21T04:19:13.589Z,100493.12
2017-10-21T04:20:19.322Z,100494.96
2017-10-21T04:21:25.196Z,100495.14
2017-10-21T04:22:31.269Z,100497.64
2017-10-21T04:23:37.801Z,100496.78
2017-10-21T04:24:43.711Z,100497.34
2017-10-21T04:25:49.583Z,100496.55
2017-10-21T04:26:55.707Z,100493.86
2017-10-21T04:28:01.830Z,100497.58
2017-10-21T04:29:07.721Z,100494.61
2017-10-21T04:30:13.781Z,100490.63
2017-10-21T04:31:19.692Z,100496.80
2017-10-21T04:32:25.766Z,100494.61
2017-10-21T04:33:31.848Z,100496.70
2017-10-21T04:34:37.902Z,100491.51
2017-10-21T04:35:43.992Z,100490.50
2017-10-21T04:36:50.070Z,100493.25
2017-10-21T04:37:56.210Z,100496.70
2017-10-21T04:39:02.325Z,100500.72
2017-10-21T04:40:08.385Z,100501.15
2017-10-21T04:41:14.442Z,100502.83
2017-10-21T04:42:20.507Z,100500.29
2017-10-21T04:43:26.713Z,100500.16
2017-10-21T04:44:32.783Z,100503.64
2017-10-21T04:45:38.871Z,100507.47
2017-10-21T04:46:44.961Z,100501.72
2017-10-21T04:47:51.156Z,100498.72
2017-10-21T04:48:57.248Z,100495.98
2017-10-21T04:50:03.332Z,100498.45
2017-10-21T04:51:12.351Z,100496.11
2017-10-21T04:52:18.431Z,100496.04
2017-10-21T04:53:24.572Z,100497.11
2017-10-21T04:54:30.477Z,100496.97
2017-10-21T04:55:36.362Z,100499.92
2017-10-21T04:56:43.517Z,100499.41
2017-10-21T04:57:49.457Z,100499.41
2017-10-21T04:58:55.572Z,100499.59
2017-10-21T05:00:01.668Z,100496.06
2017-10-21T05:01:07.971Z,100500.78
2017-10-21T05:02:14.096Z,100500.64
2017-10-21T05:03:20.214Z,100498.89
2017-10-21T05:04:26.278Z,100500.11
2017-10-21T05:05:32.049Z,100501.08
2017-10-21T05:06:38.131Z,100502.63
2017-10-21T05:07:44.209Z,100498.16
2017-10-21T05:08:50.302Z,100497.42
2017-10-21T05:09:56.366Z,100494.64
2017-10-21T05:11:02.437Z,100492.69
2017-10-21T05:12:08.528Z,100497.65
2017-10-21T05:13:14.615Z,100499.73
2017-10-21T05:14:20.558Z,100501.75
2017-10-21T05:15:26.620Z,100503.38
2017-10-21T05:16:32.757Z,100503.96
2017-10-21T05:17:38.640Z,100502.38
2017-10-21T05:18:46.209Z,100504.33
2017-10-21T05:19:53.078Z,100502.94
2017-10-21T05:21:00.020Z,100501.20
2017-10-21T05:22:07.108Z,100494.92
2017-10-21T05:23:14.849Z,100497.80
2017-10-21T05:24:21.620Z,100495.45
2017-10-21T05:25:28.734Z,100492.28
2017-10-21T05:26:34.840Z,100489.61
2017-10-21T05:27:42.146Z,100485.27
2017-10-21T05:28:50.613Z,100483.38
2017-10-21T05:29:57.747Z,100487.20
2017-10-21T05:31:05.894Z,100489.98
2017-10-21T05:32:13.328Z,100496.41
2017-10-21T05:33:19.912Z,100493.25
2017-10-21T05:34:26.652Z,100492.39
2017-10-21T05:35:32.757Z,100489.95
2017-10-21T05:36:39.069Z,100495.60
2017-10-21T05:37:46.341Z,100495.36
2017-10-21T05:38:53.047Z,100495.02
2017-10-21T05:40:00.277Z,100493.14
2017-10-21T05:41:07.709Z,100489.19
2017-10-21T05:42:15.492Z,100494.48
2017-10-21T05:43:23.135Z,100489.36
2017-10-21T05:44:29.784Z,100488.03
2017-10-21T05:45:36.475Z,100489.39
2017-10-21T05:46:44.268Z,100491.35
2017-10-21T05:47:52.351Z,100487.44
2017-10-21T05:48:59.315Z,100491.86
2017-10-21T05:50:06.323Z,100493.63
2017-10-21T05:51:13.178Z,100491.00
2017-10-21T05:52:19.628Z,100493.20
2017-10-21T05:53:26.680Z,100489.80
2017-10-21T05:54:33.568Z,100498.06
2017-10-21T05:55:40.247Z,100492.88
2017-10-21T05:56:46.810Z,100497.98
2017-10-21T05:57:54.502Z,100500.54
2017-10-21T05:59:03.768Z,100499.70
2017-10-21T06:00:10.806Z,100500.77
2017-10-21T06:01:16.823Z,100505.94
2017-10-21T06:02:24.002Z,100511.73
2017-10-21T06:03:30.051Z,100504.21
2017-10-21T06:04:36.673Z,100502.95
2017-10-21T06:05:44.266Z,100501.18
2017-10-21T06:06:50.138Z,100504.05
2017-10-21T06:07:56.214Z,100493.63
2017-10-21T06:09:02.318Z,100500.84
2017-10-21T06:10:08.408Z,100500.87
2017-10-21T06:11:15.652Z,100499.55
2017-10-21T06:12:22.182Z,100499.73
2017-10-21T06:13:30.421Z,100499.88
2017-10-21T06:14:37.480Z,100500.54
2017-10-21T06:15:44.193Z,100505.45
2017-10-21T06:16:52.549Z,100506.43
2017-10-21T06:18:03.106Z,100507.11
2017-10-21T06:19:11.637Z,100502.97
2017-10-21T06:20:18.881Z,100504.42
2017-10-21T06:21:25.729Z,100509.66
2017-10-21T06:22:32.639Z,100507.80
2017-10-21T06:23:40.626Z,100511.52
2017-10-21T06:24:47.757Z,100510.36
2017-10-21T06:25:54.732Z,100510.81
2017-10-21T06:27:01.610Z,100519.06
2017-10-21T06:28:08.497Z,100512.20
2017-10-21T06:29:15.680Z,100520.24
2017-10-21T06:30:22.623Z,100520.91
2017-10-21T06:31:29.342Z,100524.55
2017-10-21T06:32:37.036Z,100525.47
2017-10-21T06:33:44.894Z,100525.06
2017-10-21T06:34:52.127Z,100522.91
2017-10-21T06:35:59.303Z,100518.48
2017-10-21T06:37:06.413Z,100523.68
2017-10-21T06:38:13.371Z,100514.84
2017-10-21T06:39:21.199Z,100520.15
2017-10-21T06:40:28.673Z,100520.85
2017-10-21T06:41:35.531Z,100530.47
2017-10-21T06:42:42.718Z,100529.66
2017-10-21T06:43:51.038Z,100525.56
2017-10-21T06:44:58.548Z,100530.92
2017-10-21T06:46:05.672Z,100532.13
2017-10-21T06:47:13.224Z,100532.09
2017-10-21T06:48:20.105Z,100528.64
2017-10-21T06:49:26.987Z,100526.31
2017-10-21T06:50:33.603Z,100521.89
2017-10-21T06:51:41.287Z,100527.69
2017-10-21T06:52:47.945Z,100521.89
2017-10-21T06:53:54.948Z,100528.89
2017-10-21T06:55:03.058Z,100528.48
2017-10-21T06:56:09.972Z,100531.55
2017-10-21T06:57:17.244Z,100534.63
2017-10-21T06:58:26.660Z,100532.37
2017-10-21T06:59:33.402Z,100535.05
2017-10-21T07:00:39.811Z,100535.21
2017-10-21T07:01:46.260Z,100538.24
2017-10-21T07:02:52.949Z,100532.98
2017-10-21T07:03:59.190Z,100530.81
2017-10-21T07:05:06.618Z,100539.80
2017-10-21T07:06:12.745Z,100540.36
2017-10-21T07:07:19.327Z,100538.41
2017-10-21T07:08:25.608Z,100542.08
2017-10-21T07:09:31.676Z,100537.09
2017-10-21T07:10:37.798Z,100535.99
2017-10-21T07:11:43.717Z,100539.28
2017-10-21T07:12:50.876Z,100540.73
2017-10-21T07:13:58.659Z,100544.11
2017-10-21T07:15:05.272Z,100540.76
2017-10-21T07:16:11.531Z,100539.08
2017-10-21T07:17:17.932Z,100538.84
2017-10-21T07:18:24.940Z,100536.88
2017-10-21T07:19:32.972Z,100534.16
2017-10-21T07:20:39.572Z,100531.55
2017-10-21T07:21:46.399Z,100531.37
2017-10-21T07:22:53.118Z,100535.58
2017-10-21T07:23:59.933Z,100537.47
2017-10-21T07:25:08.059Z,100535.77
2017-10-21T07:26:15.488Z,100538.48
2017-10-21T07:27:23.034Z,100545.28
2017-10-21T07:28:29.884Z,100544.70
2017-10-21T07:29:36.018Z,100538.62
2017-10-21T07:30:43.288Z,100543.73
2017-10-21T07:31:49.370Z,100539.73
2017-10-21T07:32:55.443Z,100534.30
2017-10-21T07:34:01.763Z,100536.02
2017-10-21T07:35:07.897Z,100536.70
2017-10-21T07:36:14.011Z,100546.38
2017-10-21T07:37:20.069Z,100550.44
2017-10-21T07:38:26.174Z,100555.42
2017-10-21T07:39:32.823Z,100560.94
2017-10-21T07:40:43.334Z,100564.74
2017-10-21T07:41:49.927Z,100560.69
2017-10-21T07:42:56.030Z,100568.14
2017-10-21T07:44:02.143Z,100562.48
2017-10-21T07:45:08.241Z,100565.30
2017-10-21T07:46:14.357Z,100568.34
2017-10-21T07:47:20.461Z,100564.11
2017-10-21T07:48:26.586Z,100562.09
2017-10-21T07:49:32.680Z,100564.00
2017-10-21T07:50:38.806Z,100562.05
2017-10-21T07:51:44.888Z,100566.52
2017-10-21T07:52:50.975Z,100563.31
2017-10-21T07:53:57.073Z,100562.99
2017-10-21T07:55:03.163Z,100558.65
2017-10-21T07:56:09.222Z,100555.54
2017-10-21T07:57:15.294Z,100554.48
2017-10-21T07:58:21.416Z,100553.48
2017-10-21T07:59:27.492Z,100558.13
2017-10-21T08:00:33.624Z,100549.44
2017-10-21T08:01:39.802Z,100556.78
2017-10-21T08:02:45.867Z,100551.31
2017-10-21T08:03:51.995Z,100554.23
2017-10-21T08:04:58.736Z,100545.47
2017-10-21T08:06:04.853Z,100547.81
2017-10-21T08:07:10.931Z,100555.34
2017-10-21T08:08:16.982Z,100549.87
2017-10-21T08:09:23.077Z,100551.18
2017-10-21T08:10:29.175Z,100552.67
2017-10-21T08:11:45.279Z,100542.14
2017-10-21T08:12:51.075Z,100545.59
2017-10-21T08:13:57.121Z,100551.72
2017-10-21T08:15:03.278Z,100551.38
2017-10-21T08:16:09.458Z,100556.69
2017-10-21T08:17:34.648Z,100553.61
2017-10-21T08:40:05.789Z,100549.81
2017-10-21T08:41:12.167Z,100549.22
2017-10-21T08:42:23.721Z,100548.36
2017-10-21T08:43:48.526Z,100551.78
2017-10-21T08:44:54.908Z,100554.99
2017-10-21T08:46:01.001Z,100556.17
2017-10-21T08:47:06.916Z,100562.94
2017-10-21T08:49:55.468Z,100547.66
2017-10-21T08:51:01.588Z,100548.52
2017-10-21T08:52:07.692Z,100549.37
2017-10-21T08:53:13.597Z,100548.02
2017-10-21T08:54:19.714Z,100543.86
2017-10-21T08:55:25.813Z,100545.53
2017-10-21T08:56:31.947Z,100550.55
2017-10-21T08:57:38.064Z,100549.36
2017-10-21T08:58:44.187Z,100545.62
2017-10-21T08:59:50.277Z,100538.42
2017-10-21T09:00:56.217Z,100535.87
2017-10-21T09:02:02.324Z,100539.75
2017-10-21T09:03:08.228Z,100537.03
2017-10-21T09:04:14.482Z,100541.19
2017-10-21T09:05:23.839Z,100541.79
2017-10-21T09:06:29.997Z,100542.05
2017-10-21T09:07:36.865Z,100542.84
2017-10-21T09:08:43.826Z,100545.86
2017-10-21T09:09:52.143Z,100549.88
2017-10-21T09:10:58.290Z,100549.02
2017-10-21T09:12:04.461Z,100542.89
2017-10-21T09:13:10.742Z,100541.84
2017-10-21T09:14:17.636Z,100542.92
2017-10-21T09:15:23.929Z,100544.64
2017-10-21T09:16:31.317Z,100537.39
2017-10-21T09:17:37.483Z,100535.34
2017-10-21T09:18:43.652Z,100532.01
2017-10-21T09:19:49.824Z,100528.57
2017-10-21T09:20:55.982Z,100527.39
2017-10-21T09:22:02.358Z,100524.16
2017-10-21T09:23:08.513Z,100527.22
2017-10-21T09:24:14.607Z,100522.48
2017-10-21T09:25:20.731Z,100524.78
2017-10-21T09:26:26.857Z,100514.34
2017-10-21T09:27:35.914Z,100518.79
2017-10-21T09:28:43.063Z,100513.57
2017-10-21T09:29:49.150Z,100518.35
2017-10-21T09:30:55.258Z,100519.67
2017-10-21T09:32:01.409Z,100518.80
2017-10-21T09:33:07.509Z,100521.52
2017-10-21T09:34:13.606Z,100524.84
2017-10-21T09:35:19.785Z,100522.65
2017-10-21T09:36:26.024Z,100524.13
2017-10-21T09:54:12.676Z,100519.43
2017-10-21T09:59:01.211Z,100507.95
2017-10-21T10:00:19.398Z,100504.88
2017-10-21T10:02:28.763Z,100503.49
2017-10-21T10:06:18.122Z,100506.52
2017-10-21T10:07:46.828Z,100502.95
2017-10-21T10:32:22.466Z,100465.58
2017-10-21T10:33:28.672Z,100465.96
2017-10-21T10:34:34.914Z,100461.31
2017-10-21T10:35:41.180Z,100460.16
2017-10-21T10:36:47.255Z,100457.14
2017-10-21T10:37:53.369Z,100460.27
2017-10-21T10:38:59.470Z,100457.68
2017-10-21T10:40:05.578Z,100452.72
2017-10-21T10:41:13.572Z,100452.36
2017-10-21T10:42:19.702Z,100458.36
2017-10-21T10:43:25.773Z,100450.38
2017-10-21T10:44:31.472Z,100438.13
2017-10-21T10:45:37.583Z,100432.34
2017-10-21T10:46:43.476Z,100427.31
2017-10-21T10:47:49.591Z,100427.39
2017-10-21T10:48:55.715Z,100424.41
2017-10-21T10:50:01.629Z,100417.61
2017-10-21T10:51:07.750Z,100422.92
2017-10-21T10:52:13.672Z,100424.44
2017-10-21T10:53:19.822Z,100424.53
2017-10-21T10:54:25.920Z,100424.16
2017-10-21T10:55:31.989Z,100422.38
2017-10-21T10:56:38.036Z,100417.23
2017-10-21T10:57:45.001Z,100416.75
2017-10-21T10:58:53.217Z,100409.42
2017-10-21T11:00:24.398Z,100411.19
2017-10-21T11:01:42.734Z,100410.53
2017-10-21T11:02:49.085Z,100401.45
2017-10-21T11:03:56.675Z,100403.69
2017-10-21T11:05:02.834Z,100401.58
2017-10-21T11:06:08.940Z,100402.72
2017-10-21T11:07:15.039Z,100402.63
2017-10-21T11:08:21.152Z,100396.66
2017-10-21T11:09:27.237Z,100402.34
2017-10-21T11:10:33.316Z,100396.22
2017-10-21T11:11:39.402Z,100395.34
2017-10-21T11:12:45.552Z,100393.45
2017-10-21T11:13:51.646Z,100395.77
2017-10-21T11:14:57.797Z,100388.95
2017-10-21T11:16:03.878Z,100386.44
2017-10-21T11:17:09.941Z,100382.68
2017-10-21T11:18:16.044Z,100381.02
2017-10-21T11:19:22.115Z,100375.38
2017-10-21T11:20:28.164Z,100381.81
2017-10-21T11:21:34.219Z,100383.24
2017-10-21T11:22:40.257Z,100389.48
2017-10-21T11:23:46.361Z,100384.28
2017-10-21T11:24:52.439Z,100381.35
2017-10-21T11:25:58.512Z,100381.16
2017-10-21T11:27:04.593Z,100391.22
2017-10-21T11:28:10.675Z,100382.89
2017-10-21T11:29:16.794Z,100378.31
2017-10-21T11:30:22.886Z,100381.47
2017-10-21T11:31:28.965Z,100381.23
2017-10-21T11:32:35.047Z,100386.44
2017-10-21T11:33:41.199Z,100382.95
2017-10-21T11:34:47.292Z,100380.29
2017-10-21T11:35:53.393Z,100378.66
2017-10-21T11:36:59.452Z,100376.92
2017-10-21T11:38:05.525Z,100378.22
2017-10-21T11:39:11.635Z,100377.48
2017-10-21T11:40:17.755Z,100374.64
2017-10-21T11:41:23.860Z,100376.24
2017-10-21T11:42:29.925Z,100368.20
2017-10-21T11:43:36.025Z,100373.18
2017-10-21T11:44:42.118Z,100364.86
2017-10-21T11:45:48.168Z,100372.61
2017-10-21T11:46:54.254Z,100370.06
2017-10-21T11:48:00.182Z,100377.44
2017-10-21T11:49:06.310Z,100377.97
2017-10-21T11:50:12.399Z,100373.79
2017-10-21T11:51:18.529Z,100376.43
2017-10-21T11:52:24.416Z,100373.91
2017-10-21T11:53:30.499Z,100369.30
2017-10-21T11:54:36.644Z,100367.39
2017-10-21T11:55:42.813Z,100360.92
2017-10-21T11:56:48.932Z,100359.21
2017-10-21T11:57:55.035Z,100360.45
2017-10-21T11:59:01.098Z,100364.22
2017-10-21T12:00:07.211Z,100360.97
2017-10-21T12:01:13.154Z,100354.84
2017-10-21T12:02:19.287Z,100359.56
2017-10-21T12:03:25.397Z,100359.48
2017-10-21T12:04:31.463Z,100356.12
2017-10-21T12:05:37.645Z,100370.38
2017-10-21T12:06:43.712Z,100359.67
2017-10-21T12:07:49.811Z,100361.09
2017-10-21T12:08:55.904Z,100356.88
2017-10-21T12:10:02.049Z,100363.28
2017-10-21T12:11:08.117Z,100360.97
2017-10-21T12:12:14.257Z,100364.88
2017-10-21T12:13:20.339Z,100355.38
2017-10-21T12:14:26.401Z,100347.05
2017-10-21T12:15:32.478Z,100352.22
2017-10-21T12:16:38.576Z,100350.66
2017-10-21T12:17:44.662Z,100352.80
2017-10-21T12:18:50.740Z,100356.88
2017-10-21T12:19:56.843Z,100349.81
2017-10-21T12:21:02.909Z,100349.88
2017-10-21T12:22:09.028Z,100349.45
2017-10-21T12:23:15.156Z,100346.20
2017-10-21T12:24:21.230Z,100342.36
2017-10-21T12:25:27.363Z,100344.66
2017-10-21T12:26:33.584Z,100346.23
2017-10-21T12:27:39.709Z,100342.08
2017-10-21T12:28:45.808Z,100335.59
2017-10-21T12:29:51.992Z,100339.91
2017-10-21T12:30:59.601Z,100341.53
2017-10-21T12:32:05.639Z,100335.63
2017-10-21T12:33:11.687Z,100337.15
2017-10-21T12:34:17.746Z,100332.81
2017-10-21T12:35:24.657Z,100332.14
2017-10-21T12:36:32.669Z,100334.72
2017-10-21T12:37:38.777Z,100328.70
2017-10-21T12:38:44.892Z,100323.35
2017-10-21T12:39:51.044Z,100323.20
2017-10-21T12:40:57.084Z,100327.69
2017-10-21T12:42:03.131Z,100316.61
2017-10-21T12:43:09.212Z,100315.98
2017-10-21T12:44:15.347Z,100316.45
2017-10-21T12:45:21.510Z,100318.81
2017-10-21T12:46:27.924Z,100308.09
2017-10-21T12:47:34.035Z,100322.23
2017-10-21T12:48:40.132Z,100318.81
2017-10-21T12:49:46.207Z,100321.73
2017-10-21T12:50:52.278Z,100318.79
2017-10-21T12:51:58.187Z,100317.98
2017-10-21T12:53:04.087Z,100319.03
2017-10-21T12:54:09.970Z,100321.02
2017-10-21T12:55:16.087Z,100319.75
2017-10-21T12:56:22.237Z,100328.94
2017-10-21T12:57:28.329Z,100326.73
2017-10-21T12:58:34.401Z,100316.30
2017-10-21T12:59:40.525Z,100318.55
2017-10-21T13:00:46.573Z,100313.38
2017-10-21T13:01:52.659Z,100315.41
2017-10-21T13:02:58.815Z,100315.17
2017-10-21T13:04:04.957Z,100316.36
2017-10-21T13:05:11.041Z,100310.20
2017-10-21T13:06:17.121Z,100309.41
2017-10-21T13:07:23.231Z,100314.42
2017-10-21T13:08:29.317Z,100313.20
2017-10-21T13:09:35.387Z,100311.68
2017-10-21T13:10:41.526Z,100313.11
2017-10-21T13:11:47.579Z,100314.80
2017-10-21T13:12:53.649Z,100315.52
2017-10-21T13:13:59.723Z,100308.49
2017-10-21T13:15:05.897Z,100309.54
2017-10-21T13:16:11.977Z,100309.69
2017-10-21T13:17:18.069Z,100308.20
2017-10-21T13:18:24.151Z,100303.70
2017-10-21T13:19:30.224Z,100305.65
2017-10-21T13:20:36.320Z,100314.36
2017-10-21T13:21:42.473Z,100305.52
2017-10-21T13:22:48.571Z,100306.64
2017-10-21T13:23:54.622Z,100311.27
2017-10-21T13:25:01.500Z,100318.41
2017-10-21T13:26:07.577Z,100315.08
2017-10-21T13:27:13.696Z,100308.16
2017-10-21T13:28:19.789Z,100311.18
2017-10-21T13:29:25.862Z,100308.58
2017-10-21T13:30:31.964Z,100313.86
2017-10-21T13:31:38.027Z,100310.40
2017-10-21T13:32:44.085Z,100315.36
2017-10-21T13:33:53.638Z,100310.55
2017-10-21T13:34:59.748Z,100315.84
2017-10-21T13:36:05.836Z,100321.50
2017-10-21T13:37:11.907Z,100322.52
2017-10-21T13:38:17.972Z,100317.03
2017-10-21T13:39:24.041Z,100324.42
2017-10-21T13:40:30.203Z,100318.06
2017-10-21T13:41:36.305Z,100321.02
2017-10-21T13:42:42.426Z,100323.69
2017-10-21T13:43:48.518Z,100329.48
2017-10-21T13:44:54.575Z,100320.41
2017-10-21T13:46:00.671Z,100324.33
2017-10-21T13:47:06.757Z,100324.92
2017-10-21T13:48:12.822Z,100323.15
2017-10-21T13:49:18.914Z,100328.13
2017-10-21T13:50:25.002Z,100324.41
2017-10-21T13:51:31.082Z,100320.62